Curtis Field
KBBD : now visible

Airfield :











YOU CAN JOIN US ON...

 
LOGIN :

Register | Disclaimer

   EN    FR    IT 

 









Legend :    VFR   Marginal VFR   IFR   Intensive IFR   Very Intensive IFR
Visi :
Ceiling :
>= 8 km
>= 3000ft
5 to 8 km
1000 to 3000 ft
1500m to 5 km
500 to 1000 ft
800 to 1500m
200 to 500 ft
< 800m
< 200 ft
Symbols :   Thunderstorms  Fog  Heavy snow  Heavy precipitations  Wind > 20 kt






- Airport Elevation : 1827 ft


KBBD - Curtis Field

CURRENT METAR :
  • 100335Z AUTO 17009KT 10SM CLR 29/19 A2992 RMK AO2

EXPIRED METARs :
  • 100315Z AUTO 17008KT 10SM CLR 30/19 A2992 RMK AO2
  • 100255Z AUTO 15009KT 10SM CLR 30/19 A2992 RMK AO2
  • 100235Z AUTO 17007KT 10SM CLR 30/19 A2990 RMK AO2
  • 100215Z AUTO 16008G14KT 10SM CLR 31/19 A2989 RMK AO2
  • 100155Z AUTO 16010KT 10SM CLR 31/19 A2989 RMK AO2
  • 100135Z AUTO 16009KT 10SM CLR 32/19 A2989 RMK AO2
  • 100115Z AUTO 16010KT 10SM CLR 32/19 A2989 RMK AO2
  • 100055Z AUTO 17012KT 10SM CLR 33/19 A2989 RMK AO2

TAF KBBD
Valid from the 10 at 00:00 until the 11 at 00:00 UTC


092320Z 1000/1024 17010G17KT P6SM FEW045
FM100100 15007KT P6SM SKC
FM100500 15011KT P6SM FEW025
KZHU FIR / North America



MET'MAP, your aeronautical weather chart ! - Copyright ORBIFLY December 2007 - Disclaimer

ORBIFLY MET'MAP TEAM :

Programming & Development : Alexandra Zaïnal
Concept & original design : Baudouin d'Aumeries
Assistance for programming : Marc-Olivier Méhu
Technical & hardware support : Manuel Goepfert

Contact : metmap@orbifly.com




SOURCES & CREDITS :

   NOAA       Earth
Advisory